Time;durP1;ratioP1;P1;durP2;ratioP2;P2;SDS_P1;SDS_P2;PMS_P1;PMS_P2;Temp;Humidity;BMP_temperature;BMP_pressure;BME280_temperature;BME280_humidity;BME280_pressure;Samples;Min_cycle;Max_cycle;Signal;HPM_P1;HPM_P2
2021/01/07 00:01:55;;;;;;;15.23;8.07;;;;;;;;;;5084533;28;20198;-73
2021/01/07 00:04:20;;;;;;;18.23;8.10;;;;;;;;;;5078228;28;20188;-74
2021/01/07 00:06:46;;;;;;;13.23;8.03;;;;;;;;;;5084563;28;20287;-73
2021/01/07 00:09:11;;;;;;;13.47;7.77;;;;;;;;;;5078620;28;20262;-73
2021/01/07 00:11:40;;;;;;;14.53;8.20;;;;;;;;;;5088102;28;20599;-71
2021/01/07 00:14:07;;;;;;;13.63;8.40;;;;;;;;;;5078790;28;20185;-73
2021/01/07 00:16:33;;;;;;;17.93;8.23;;;;;;;;;;5085254;28;20287;-73
2021/01/07 00:18:58;;;;;;;15.17;8.37;;;;;;;;;;5078601;28;20863;-74
2021/01/07 00:21:24;;;;;;;14.53;8.07;;;;;;;;;;5087242;28;20187;-73
2021/01/07 00:23:49;;;;;;;16.57;8.43;;;;;;;;;;5080006;28;20226;-73
2021/01/07 00:26:15;;;;;;;18.57;7.37;;;;;;;;;;5069014;28;20185;-74
2021/01/07 00:28:40;;;;;;;14.67;7.50;;;;;;;;;;5087455;28;20214;-75
2021/01/07 00:31:06;;;;;;;11.20;7.13;;;;;;;;;;5084601;28;20471;-74
2021/01/07 00:33:31;;;;;;;17.30;7.37;;;;;;;;;;5087361;28;20526;-73
2021/01/07 00:35:56;;;;;;;12.60;7.90;;;;;;;;;;5082249;28;20219;-72
2021/01/07 00:38:22;;;;;;;13.97;7.37;;;;;;;;;;5085914;28;20243;-72
2021/01/07 00:40:47;;;;;;;15.53;7.97;;;;;;;;;;5077582;28;20187;-72
2021/01/07 00:43:12;;;;;;;16.50;7.40;;;;;;;;;;5085693;28;20192;-72
2021/01/07 00:45:38;;;;;;;15.07;7.33;;;;;;;;;;5075226;28;20176;-72
2021/01/07 00:48:04;;;;;;;14.03;7.63;;;;;;;;;;5086623;28;20229;-72
2021/01/07 00:50:29;;;;;;;21.20;8.13;;;;;;;;;;5075403;28;20655;-72
2021/01/07 00:52:55;;;;;;;18.00;8.40;;;;;;;;;;5078529;28;20180;-72
2021/01/07 00:55:21;;;;;;;19.33;7.80;;;;;;;;;;5079511;28;20220;-73
2021/01/07 00:57:46;;;;;;;14.77;7.80;;;;;;;;;;5085758;28;20184;-72
2021/01/07 01:00:18;;;;;;;14.93;7.63;;;;;;;;;;5086257;28;20662;-73
2021/01/07 01:02:44;;;;;;;14.03;7.30;;;;;;;;;;5075660;28;20986;-72
2021/01/07 01:05:10;;;;;;;12.80;7.03;;;;;;;;;;5084205;28;20258;-73
2021/01/07 01:07:35;;;;;;;12.43;6.70;;;;;;;;;;5075604;28;20236;-73
2021/01/07 01:10:01;;;;;;;11.77;7.10;;;;;;;;;;5087606;28;20309;-73
2021/01/07 01:12:26;;;;;;;12.47;7.00;;;;;;;;;;5073093;28;20184;-73
2021/01/07 01:14:52;;;;;;;11.30;6.40;;;;;;;;;;5084833;28;20208;-73
2021/01/07 01:17:17;;;;;;;11.73;6.10;;;;;;;;;;5074603;28;20180;-73
2021/01/07 01:19:43;;;;;;;8.37;5.33;;;;;;;;;;5088225;28;20267;-72
2021/01/07 01:22:09;;;;;;;13.53;5.87;;;;;;;;;;5074601;28;20698;-73
2021/01/07 01:24:34;;;;;;;9.37;5.60;;;;;;;;;;5085352;28;20176;-73
2021/01/07 01:27:00;;;;;;;8.47;5.10;;;;;;;;;;5076815;28;20559;-73
2021/01/07 01:29:26;;;;;;;8.67;5.40;;;;;;;;;;5086763;28;20213;-73
2021/01/07 01:31:52;;;;;;;8.60;5.37;;;;;;;;;;5084917;28;20180;-73
2021/01/07 01:34:22;;;;;;;9.73;4.97;;;;;;;;;;5078378;28;20194;-73
2021/01/07 01:36:48;;;;;;;8.43;5.03;;;;;;;;;;5080719;28;20228;-73
2021/01/07 01:39:14;;;;;;;8.47;5.27;;;;;;;;;;5076385;28;20207;-73
2021/01/07 01:41:58;;;;;;;7.30;4.67;;;;;;;;;;5084285;28;20218;-73
2021/01/07 01:44:24;;;;;;;7.60;4.90;;;;;;;;;;5078410;28;20282;-73
2021/01/07 01:46:49;;;;;;;8.87;4.60;;;;;;;;;;5085006;28;20615;-73
2021/01/07 01:49:15;;;;;;;8.27;4.23;;;;;;;;;;5083269;28;20196;-73
2021/01/07 01:51:41;;;;;;;8.63;4.40;;;;;;;;;;5088150;28;20199;-73
2021/01/07 01:54:07;;;;;;;9.50;5.00;;;;;;;;;;5080454;28;20622;-73
2021/01/07 01:56:33;;;;;;;9.20;3.93;;;;;;;;;;5087409;28;20215;-73
2021/01/07 01:58:59;;;;;;;7.33;4.33;;;;;;;;;;5077675;28;20191;-73
2021/01/07 02:01:25;;;;;;;8.63;4.87;;;;;;;;;;5085896;28;20228;-73
2021/01/07 02:03:51;;;;;;;6.50;4.27;;;;;;;;;;5081980;28;20598;-73
2021/01/07 02:06:19;;;;;;;8.70;4.37;;;;;;;;;;5085493;28;20734;-73
2021/01/07 02:08:46;;;;;;;9.07;4.77;;;;;;;;;;5089874;28;20534;-73
2021/01/07 02:11:16;;;;;;;6.73;4.23;;;;;;;;;;5079386;28;20196;-73
2021/01/07 02:13:47;;;;;;;6.67;4.30;;;;;;;;;;5090288;28;20180;-73
2021/01/07 02:16:22;;;;;;;5.97;3.93;;;;;;;;;;5079176;28;20208;-73
2021/01/07 02:18:48;;;;;;;5.93;4.10;;;;;;;;;;5089201;28;20222;-73
2021/01/07 02:21:13;;;;;;;6.43;4.47;;;;;;;;;;5078820;28;20223;-73
2021/01/07 02:23:52;;;;;;;6.50;4.00;;;;;;;;;;5089700;28;20543;-73
2021/01/07 02:26:22;;;;;;;6.63;3.83;;;;;;;;;;5079111;28;20214;-73
2021/01/07 02:28:51;;;;;;;7.00;3.80;;;;;;;;;;5089734;28;20268;-73
2021/01/07 02:31:17;;;;;;;6.23;4.00;;;;;;;;;;5080977;28;20199;-73
2021/01/07 02:33:43;;;;;;;6.80;4.10;;;;;;;;;;5088260;28;20203;-73
2021/01/07 02:36:09;;;;;;;7.27;4.13;;;;;;;;;;5077313;28;20216;-73
2021/01/07 02:38:35;;;;;;;7.13;3.93;;;;;;;;;;5076938;28;20546;-74
2021/01/07 02:41:02;;;;;;;7.33;4.17;;;;;;;;;;5078967;28;20241;-73
2021/01/07 02:43:27;;;;;;;7.03;4.20;;;;;;;;;;5087235;28;20245;-73
2021/01/07 02:45:53;;;;;;;8.83;4.20;;;;;;;;;;5078291;28;20692;-73
2021/01/07 02:48:18;;;;;;;6.27;3.73;;;;;;;;;;5089716;28;20215;-73
2021/01/07 02:50:44;;;;;;;6.10;3.77;;;;;;;;;;5086022;28;20286;-73
2021/01/07 02:53:09;;;;;;;5.90;3.80;;;;;;;;;;5079793;28;20327;-73
2021/01/07 02:55:34;;;;;;;6.30;3.80;;;;;;;;;;5087813;28;20199;-73
2021/01/07 02:58:00;;;;;;;6.30;3.83;;;;;;;;;;5079841;28;20191;-73
2021/01/07 03:00:25;;;;;;;7.20;3.90;;;;;;;;;;5089606;28;20191;-73
2021/01/07 03:02:51;;;;;;;6.43;3.60;;;;;;;;;;5079670;28;20647;-73
2021/01/07 03:05:16;;;;;;;6.73;4.07;;;;;;;;;;5087776;28;20769;-73
2021/01/07 03:07:41;;;;;;;7.50;4.03;;;;;;;;;;5078036;28;20191;-73
2021/01/07 03:10:08;;;;;;;7.00;4.60;;;;;;;;;;5084353;28;20281;-73
2021/01/07 03:12:34;;;;;;;8.03;4.67;;;;;;;;;;5084387;28;20275;-73
2021/01/07 03:14:59;;;;;;;6.93;4.40;;;;;;;;;;5088915;28;20306;-73
2021/01/07 03:17:24;;;;;;;7.77;4.03;;;;;;;;;;5078080;28;20268;-73
2021/01/07 03:19:50;;;;;;;6.37;3.90;;;;;;;;;;5088069;28;20271;-73
2021/01/07 03:22:15;;;;;;;4.70;3.43;;;;;;;;;;5087395;28;20278;-73
2021/01/07 03:24:40;;;;;;;6.57;4.03;;;;;;;;;;5079480;28;20272;-73
2021/01/07 03:27:06;;;;;;;7.10;3.63;;;;;;;;;;5088185;28;20249;-73
2021/01/07 03:29:31;;;;;;;6.13;3.27;;;;;;;;;;5078786;28;20203;-73
2021/01/07 03:31:57;;;;;;;5.80;3.20;;;;;;;;;;5088975;28;20188;-73
2021/01/07 03:34:22;;;;;;;6.07;3.27;;;;;;;;;;5080705;28;20188;-73
2021/01/07 03:36:48;;;;;;;5.93;3.83;;;;;;;;;;5087437;28;20220;-73
2021/01/07 03:39:13;;;;;;;5.77;3.50;;;;;;;;;;5074952;28;20184;-73
2021/01/07 03:41:39;;;;;;;4.70;3.23;;;;;;;;;;5087510;28;20636;-73
2021/01/07 03:44:05;;;;;;;5.23;3.40;;;;;;;;;;5078662;28;20180;-73
2021/01/07 03:46:31;;;;;;;5.13;3.10;;;;;;;;;;5087857;28;20189;-73
2021/01/07 03:48:56;;;;;;;5.67;3.47;;;;;;;;;;5075340;28;20172;-73
2021/01/07 03:51:21;;;;;;;5.07;2.73;;;;;;;;;;5085180;28;20180;-73
2021/01/07 03:53:46;;;;;;;7.30;3.33;;;;;;;;;;5084617;28;20184;-73
2021/01/07 03:56:12;;;;;;;6.40;3.60;;;;;;;;;;5076754;28;20243;-73
2021/01/07 03:58:37;;;;;;;4.83;3.10;;;;;;;;;;5088444;28;20184;-73
2021/01/07 04:01:03;;;;;;;6.30;3.57;;;;;;;;;;5079364;28;20184;-73
2021/01/07 04:03:29;;;;;;;4.27;3.33;;;;;;;;;;5087505;28;20184;-73
2021/01/07 04:05:54;;;;;;;5.43;3.03;;;;;;;;;;5078174;28;20636;-73
2021/01/07 04:08:20;;;;;;;4.67;2.80;;;;;;;;;;5087518;28;20207;-73
2021/01/07 04:10:45;;;;;;;5.73;3.10;;;;;;;;;;5078339;28;20188;-73
2021/01/07 04:13:10;;;;;;;7.10;3.20;;;;;;;;;;5086585;28;20237;-73
2021/01/07 04:15:36;;;;;;;5.77;3.47;;;;;;;;;;5080033;28;20428;-73
2021/01/07 04:18:01;;;;;;;5.37;3.07;;;;;;;;;;5085941;28;20180;-73
2021/01/07 04:20:26;;;;;;;6.87;3.17;;;;;;;;;;5088036;28;20476;-73
2021/01/07 04:22:52;;;;;;;6.57;3.80;;;;;;;;;;5077596;28;20208;-73
2021/01/07 04:25:17;;;;;;;6.53;3.57;;;;;;;;;;5089283;28;20187;-73
2021/01/07 04:27:42;;;;;;;6.43;3.23;;;;;;;;;;5076988;28;20222;-73
2021/01/07 04:30:08;;;;;;;5.53;3.20;;;;;;;;;;5087090;28;20196;-73
2021/01/07 04:32:34;;;;;;;7.30;3.43;;;;;;;;;;5076956;28;20192;-73
2021/01/07 04:34:59;;;;;;;6.43;3.47;;;;;;;;;;5085274;28;20574;-73
2021/01/07 04:37:24;;;;;;;5.73;3.40;;;;;;;;;;5079236;28;20228;-73
2021/01/07 04:39:49;;;;;;;6.50;3.57;;;;;;;;;;5086218;28;20322;-73
2021/01/07 04:42:15;;;;;;;6.33;3.57;;;;;;;;;;5077059;28;20628;-73
2021/01/07 04:44:42;;;;;;;5.83;3.47;;;;;;;;;;5086304;28;20628;-73
2021/01/07 04:47:07;;;;;;;5.50;3.50;;;;;;;;;;5077903;28;20596;-73
2021/01/07 04:49:33;;;;;;;6.33;3.97;;;;;;;;;;5082378;28;20212;-73
2021/01/07 04:51:58;;;;;;;6.60;4.33;;;;;;;;;;5089001;28;20556;-73
2021/01/07 04:54:24;;;;;;;7.47;4.13;;;;;;;;;;5078871;28;20264;-73
2021/01/07 04:56:50;;;;;;;6.50;4.37;;;;;;;;;;5087860;28;20218;-73
2021/01/07 04:59:15;;;;;;;8.87;4.63;;;;;;;;;;5075275;28;20389;-73
2021/01/07 05:01:41;;;;;;;7.77;4.97;;;;;;;;;;5085993;28;20223;-73
2021/01/07 05:04:09;;;;;;;7.17;4.57;;;;;;;;;;5074424;28;20558;-73
2021/01/07 05:06:34;;;;;;;9.87;4.97;;;;;;;;;;5085168;28;20622;-73
2021/01/07 05:09:05;;;;;;;7.20;4.60;;;;;;;;;;5078493;28;20228;-73
2021/01/07 05:11:31;;;;;;;8.87;5.00;;;;;;;;;;5084125;28;20636;-73
2021/01/07 05:13:59;;;;;;;7.73;4.50;;;;;;;;;;5077499;28;20236;-73
2021/01/07 05:16:25;;;;;;;7.03;4.30;;;;;;;;;;5084789;28;20521;-73
2021/01/07 05:18:50;;;;;;;6.60;4.77;;;;;;;;;;5078434;28;20651;-73
2021/01/07 05:21:16;;;;;;;7.13;4.33;;;;;;;;;;5081588;28;20230;-73
2021/01/07 05:23:42;;;;;;;7.27;4.30;;;;;;;;;;5074418;28;20255;-73
2021/01/07 05:26:08;;;;;;;7.07;4.50;;;;;;;;;;5081830;28;20182;-73
2021/01/07 05:28:34;;;;;;;8.83;4.73;;;;;;;;;;5084975;28;20187;-73
2021/01/07 05:31:00;;;;;;;8.30;4.43;;;;;;;;;;5076369;28;20659;-73
2021/01/07 05:33:27;;;;;;;7.87;4.53;;;;;;;;;;5085989;28;20221;-73
2021/01/07 05:35:54;;;;;;;9.40;4.83;;;;;;;;;;5077248;28;20590;-73
2021/01/07 05:38:20;;;;;;;9.17;4.83;;;;;;;;;;5086526;28;20721;-73
2021/01/07 05:40:48;;;;;;;7.87;4.70;;;;;;;;;;5075417;28;20196;-73
2021/01/07 05:43:14;;;;;;;7.13;4.60;;;;;;;;;;5085499;28;20639;-73
2021/01/07 05:45:42;;;;;;;10.13;4.87;;;;;;;;;;5077501;28;20191;-73
2021/01/07 05:48:09;;;;;;;9.97;5.53;;;;;;;;;;5084490;28;20523;-73
2021/01/07 05:50:37;;;;;;;10.33;4.97;;;;;;;;;;5076584;28;20184;-73
2021/01/07 05:53:03;;;;;;;8.27;4.60;;;;;;;;;;5085414;28;20192;-73
2021/01/07 05:55:29;;;;;;;10.27;5.30;;;;;;;;;;5078032;28;20261;-73
2021/01/07 05:58:02;;;;;;;9.07;4.80;;;;;;;;;;5084619;28;20275;-73
2021/01/07 06:00:33;;;;;;;10.90;4.83;;;;;;;;;;5085804;28;20263;-73
2021/01/07 06:03:02;;;;;;;8.83;4.27;;;;;;;;;;5074885;28;20807;-73
2021/01/07 06:05:29;;;;;;;11.13;4.80;;;;;;;;;;5083848;28;20172;-73
2021/01/07 06:07:55;;;;;;;8.97;4.93;;;;;;;;;;5072796;28;20188;-73
2021/01/07 06:10:22;;;;;;;12.07;5.43;;;;;;;;;;5086975;28;20272;-73
2021/01/07 06:12:48;;;;;;;11.13;5.30;;;;;;;;;;5072412;28;20646;-73
2021/01/07 06:15:15;;;;;;;9.20;4.60;;;;;;;;;;5088175;28;20219;-73
2021/01/07 06:17:42;;;;;;;10.10;4.80;;;;;;;;;;5073240;28;20536;-73
2021/01/07 06:20:20;;;;;;;9.33;5.07;;;;;;;;;;5086584;28;20177;-74
2021/01/07 06:22:51;;;;;;;11.30;4.63;;;;;;;;;;5072234;28;20191;-73
2021/01/07 06:25:18;;;;;;;9.37;4.60;;;;;;;;;;5082901;28;20194;-73
2021/01/07 06:27:45;;;;;;;8.37;4.60;;;;;;;;;;5069891;28;20199;-73
2021/01/07 06:30:10;;;;;;;9.23;4.70;;;;;;;;;;4379001;28;10000820;-73
2021/01/07 06:32:39;;;;;;;6.90;4.10;;;;;;;;;;5068483;28;20200;-73
2021/01/07 06:35:13;;;;;;;10.13;4.30;;;;;;;;;;5084518;28;20719;-73
2021/01/07 06:37:41;;;;;;;11.93;5.27;;;;;;;;;;5073285;28;20244;-73
2021/01/07 06:40:12;;;;;;;7.93;4.53;;;;;;;;;;5087527;28;20191;-73
2021/01/07 06:42:49;;;;;;;12.50;4.70;;;;;;;;;;5085235;28;20544;-73
2021/01/07 06:45:15;;;;;;;8.67;4.23;;;;;;;;;;5082300;28;20218;-73
2021/01/07 06:47:42;;;;;;;8.20;4.63;;;;;;;;;;5081311;28;20225;-74
2021/01/07 06:50:08;;;;;;;9.53;4.60;;;;;;;;;;5074153;28;20681;-73
2021/01/07 06:52:42;;;;;;;8.23;4.37;;;;;;;;;;5085442;28;20321;-73
2021/01/07 06:55:18;;;;;;;9.33;4.57;;;;;;;;;;5074291;28;20208;-74
2021/01/07 06:57:44;;;;;;;7.83;4.70;;;;;;;;;;5082376;28;20183;-73
2021/01/07 07:00:11;;;;;;;9.33;4.90;;;;;;;;;;5067411;28;20204;-73
2021/01/07 07:02:36;;;;;;;11.17;4.93;;;;;;;;;;5084048;28;20220;-73
2021/01/07 07:05:09;;;;;;;11.30;5.10;;;;;;;;;;5077452;28;20275;-72
2021/01/07 07:07:57;;;;;;;13.23;7.77;;;;;;;;;;5085613;28;20204;-73
2021/01/07 07:10:22;;;;;;;12.00;6.53;;;;;;;;;;5073602;28;20540;-73
2021/01/07 07:12:52;;;;;;;11.37;6.03;;;;;;;;;;5086300;28;20182;-73
2021/01/07 07:15:22;;;;;;;12.00;6.50;;;;;;;;;;5076922;28;20208;-73
2021/01/07 07:17:49;;;;;;;11.67;6.40;;;;;;;;;;5085136;28;20179;-73
2021/01/07 07:20:24;;;;;;;10.37;6.10;;;;;;;;;;5075788;28;20226;-73
2021/01/07 07:22:51;;;;;;;10.73;6.67;;;;;;;;;;4732063;28;9999711;-73
2021/01/07 07:25:23;;;;;;;11.27;6.03;;;;;;;;;;5070124;28;22136;-73
2021/01/07 07:27:50;;;;;;;11.57;6.70;;;;;;;;;;5083626;28;20191;-73
2021/01/07 07:30:39;;;;;;;10.57;5.37;;;;;;;;;;5079412;28;20662;-73
2021/01/07 07:33:04;;;;;;;12.20;6.10;;;;;;;;;;5078372;28;20188;-73
2021/01/07 07:35:41;;;;;;;10.00;6.00;;;;;;;;;;5081747;28;20571;-73
2021/01/07 07:38:09;;;;;;;11.20;6.30;;;;;;;;;;5084615;28;20288;-73
2021/01/07 07:40:37;;;;;;;10.27;6.10;;;;;;;;;;5082484;28;20241;-73
2021/01/07 07:43:05;;;;;;;11.27;6.33;;;;;;;;;;5081602;28;20188;-73
2021/01/07 07:45:32;;;;;;;12.30;6.50;;;;;;;;;;5082332;28;20172;-73
2021/01/07 07:47:59;;;;;;;11.37;6.37;;;;;;;;;;5070794;28;20207;-72
2021/01/07 07:50:29;;;;;;;12.00;6.50;;;;;;;;;;5078659;28;20189;-73
2021/01/07 07:53:10;;;;;;;11.57;6.50;;;;;;;;;;5074010;28;20274;-73
2021/01/07 07:55:38;;;;;;;12.40;6.53;;;;;;;;;;5082294;28;20192;-73
2021/01/07 07:58:14;;;;;;;16.03;6.70;;;;;;;;;;5076076;28;20226;-73
2021/01/07 08:01:00;;;;;;;11.40;6.10;;;;;;;;;;5080987;28;20184;-73
2021/01/07 08:03:30;;;;;;;12.77;6.37;;;;;;;;;;5069939;28;20200;-73
2021/01/07 08:06:00;;;;;;;11.47;6.27;;;;;;;;;;5078688;28;20211;-73
2021/01/07 08:08:29;;;;;;;12.53;6.37;;;;;;;;;;5068850;28;20214;-73
2021/01/07 08:10:56;;;;;;;16.70;6.37;;;;;;;;;;5080203;28;20630;-73
2021/01/07 08:13:24;;;;;;;11.20;6.63;;;;;;;;;;5069947;28;20191;-73
2021/01/07 08:15:51;;;;;;;11.50;6.60;;;;;;;;;;5080298;28;20223;-73
2021/01/07 08:18:21;;;;;;;15.93;7.90;;;;;;;;;;5075228;28;20180;-73
2021/01/07 08:20:49;;;;;;;14.43;7.67;;;;;;;;;;5087135;28;20627;-73
2021/01/07 08:23:15;;;;;;;14.20;7.90;;;;;;;;;;5075772;28;20181;-73
2021/01/07 08:25:45;;;;;;;12.83;7.33;;;;;;;;;;5089264;28;20176;-74
2021/01/07 08:28:25;;;;;;;17.37;8.23;;;;;;;;;;5080808;28;20706;-73
2021/01/07 08:30:54;;;;;;;16.27;8.73;;;;;;;;;;5089488;28;20194;-73
2021/01/07 08:33:22;;;;;;;14.03;8.23;;;;;;;;;;5077926;28;20258;-72
2021/01/07 08:35:48;;;;;;;15.83;8.70;;;;;;;;;;5082731;28;20548;-72
2021/01/07 08:38:25;;;;;;;16.50;8.93;;;;;;;;;;5083844;28;20238;-72
2021/01/07 08:40:53;;;;;;;14.57;9.03;;;;;;;;;;5071275;28;20267;-72
2021/01/07 08:43:19;;;;;;;17.10;10.00;;;;;;;;;;5087790;28;20524;-72
2021/01/07 08:45:44;;;;;;;16.07;9.40;;;;;;;;;;5066251;28;20192;-72
2021/01/07 08:48:10;;;;;;;16.30;9.13;;;;;;;;;;5083531;28;20203;-72
2021/01/07 08:50:36;;;;;;;18.03;9.97;;;;;;;;;;5074692;28;20670;-72
2021/01/07 08:53:08;;;;;;;18.07;10.37;;;;;;;;;;5091744;28;20192;-72
2021/01/07 08:55:48;;;;;;;18.27;10.23;;;;;;;;;;5079963;28;20216;-72
2021/01/07 08:58:26;;;;;;;22.63;11.33;;;;;;;;;;5087839;28;20510;-73
2021/01/07 09:00:53;;;;;;;22.77;12.50;;;;;;;;;;5075617;28;20279;-73
2021/01/07 09:03:20;;;;;;;25.87;13.27;;;;;;;;;;5087380;28;20259;-74
2021/01/07 09:05:46;;;;;;;21.77;12.80;;;;;;;;;;5079307;28;20687;-73
2021/01/07 09:08:13;;;;;;;21.97;12.97;;;;;;;;;;5088247;28;20176;-72
2021/01/07 09:10:39;;;;;;;23.93;13.17;;;;;;;;;;5077562;28;20179;-72
2021/01/07 09:13:22;;;;;;;24.67;14.63;;;;;;;;;;5086125;28;20615;-72
2021/01/07 09:15:48;;;;;;;23.83;14.10;;;;;;;;;;5074586;28;20219;-72
2021/01/07 09:18:17;;;;;;;24.33;14.50;;;;;;;;;;5085945;28;20187;-74
2021/01/07 09:20:43;;;;;;;22.37;13.70;;;;;;;;;;5084255;28;20496;-72
2021/01/07 09:23:11;;;;;;;23.70;13.57;;;;;;;;;;5080761;28;20247;-72
2021/01/07 09:25:37;;;;;;;22.10;12.47;;;;;;;;;;5087622;28;20237;-72
2021/01/07 09:28:04;;;;;;;25.00;14.53;;;;;;;;;;5082074;28;20237;-72
2021/01/07 09:30:30;;;;;;;34.10;18.23;;;;;;;;;;5085975;28;20222;-73
2021/01/07 09:32:56;;;;;;;24.03;13.27;;;;;;;;;;5077936;28;20192;-72
2021/01/07 09:35:22;;;;;;;22.90;14.77;;;;;;;;;;5080715;28;20203;-72
2021/01/07 09:37:48;;;;;;;22.33;12.93;;;;;;;;;;5067733;28;20216;-72
2021/01/07 09:40:14;;;;;;;25.30;13.43;;;;;;;;;;5057593;28;20211;-72
2021/01/07 09:42:40;;;;;;;19.73;13.07;;;;;;;;;;5054393;28;20204;-72
2021/01/07 09:45:11;;;;;;;18.70;12.60;;;;;;;;;;5063308;28;20196;-72
2021/01/07 09:47:37;;;;;;;23.17;12.93;;;;;;;;;;5053048;28;20188;-72
2021/01/07 09:50:08;;;;;;;20.90;12.83;;;;;;;;;;5060408;28;20194;-72
2021/01/07 09:52:34;;;;;;;19.57;13.17;;;;;;;;;;5032446;28;20181;-72
2021/01/07 09:55:00;;;;;;;21.80;11.57;;;;;;;;;;5043645;28;20192;-72
2021/01/07 09:57:26;;;;;;;19.37;10.87;;;;;;;;;;5063562;28;20181;-72
2021/01/07 09:59:51;;;;;;;15.83;10.23;;;;;;;;;;5051421;28;20177;-73
2021/01/07 10:02:16;;;;;;;17.53;10.97;;;;;;;;;;5066238;28;20188;-72
2021/01/07 10:04:43;;;;;;;17.97;10.07;;;;;;;;;;5055014;28;20188;-73
2021/01/07 10:07:09;;;;;;;15.23;9.40;;;;;;;;;;5061971;28;20200;-72
2021/01/07 10:09:34;;;;;;;14.73;9.90;;;;;;;;;;5055987;28;20185;-72
2021/01/07 10:12:00;;;;;;;14.37;9.97;;;;;;;;;;5069280;28;20227;-72
2021/01/07 10:14:29;;;;;;;16.37;10.00;;;;;;;;;;5056601;28;20188;-72
2021/01/07 10:16:56;;;;;;;14.33;9.27;;;;;;;;;;5042283;28;20250;-73
2021/01/07 10:19:23;;;;;;;14.07;9.80;;;;;;;;;;5057086;28;20263;-72
2021/01/07 10:21:58;;;;;;;17.13;9.70;;;;;;;;;;5069367;28;20177;-73
2021/01/07 10:24:24;;;;;;;14.97;9.57;;;;;;;;;;5042937;28;20671;-72
2021/01/07 10:26:55;;;;;;;15.47;9.43;;;;;;;;;;5052557;28;20310;-72
2021/01/07 10:29:20;;;;;;;14.10;9.67;;;;;;;;;;5057801;28;20228;-73
2021/01/07 10:31:45;;;;;;;15.57;9.73;;;;;;;;;;5049248;28;20275;-73
2021/01/07 10:34:12;;;;;;;14.90;9.00;;;;;;;;;;5060432;28;20794;-73
2021/01/07 10:36:40;;;;;;;13.27;9.03;;;;;;;;;;5064072;28;20201;-73
2021/01/07 10:39:05;;;;;;;13.27;9.37;;;;;;;;;;5080734;28;20202;-73
2021/01/07 10:41:31;;;;;;;13.70;9.13;;;;;;;;;;5057358;28;20188;-73
2021/01/07 10:43:59;;;;;;;13.47;8.63;;;;;;;;;;5086489;28;20241;-73
2021/01/07 10:46:26;;;;;;;13.23;9.63;;;;;;;;;;5060383;28;20192;-74
2021/01/07 10:48:53;;;;;;;15.47;9.23;;;;;;;;;;5086176;28;20184;-73
2021/01/07 10:51:19;;;;;;;13.27;8.20;;;;;;;;;;5069312;28;20647;-73
2021/01/07 10:53:52;;;;;;;11.50;8.23;;;;;;;;;;5080833;28;20270;-73
2021/01/07 10:56:25;;;;;;;12.90;8.37;;;;;;;;;;5081151;28;20211;-73
2021/01/07 10:59:07;;;;;;;11.00;8.03;;;;;;;;;;5080664;28;20184;-74
2021/01/07 11:01:49;;;;;;;12.57;7.90;;;;;;;;;;5078160;28;20263;-73
2021/01/07 11:04:42;;;;;;;11.33;7.97;;;;;;;;;;5083828;28;20287;-73
2021/01/07 11:07:16;;;;;;;11.00;7.23;;;;;;;;;;5072318;28;20200;-73
2021/01/07 11:09:45;;;;;;;9.33;6.90;;;;;;;;;;5087427;28;20230;-74
2021/01/07 11:12:18;;;;;;;10.90;6.90;;;;;;;;;;5076115;28;20184;-73
2021/01/07 11:14:55;;;;;;;11.23;7.10;;;;;;;;;;5064985;28;20180;-73
2021/01/07 11:17:24;;;;;;;10.63;6.80;;;;;;;;;;5057921;28;20521;-73
2021/01/07 11:19:51;;;;;;;11.87;7.17;;;;;;;;;;5087424;28;20176;-74
2021/01/07 11:22:25;;;;;;;8.87;6.33;;;;;;;;;;5057829;28;20996;-74
2021/01/07 11:24:51;;;;;;;9.63;6.60;;;;;;;;;;5076882;28;20601;-73
2021/01/07 11:27:17;;;;;;;9.63;6.27;;;;;;;;;;5078140;28;20271;-72
2021/01/07 11:29:43;;;;;;;8.90;5.80;;;;;;;;;;5086083;28;20211;-73
2021/01/07 11:32:09;;;;;;;9.70;6.77;;;;;;;;;;5085417;28;20201;-74
2021/01/07 11:34:35;;;;;;;11.70;6.70;;;;;;;;;;5058417;28;20180;-73
2021/01/07 11:37:09;;;;;;;9.93;7.17;;;;;;;;;;5087052;28;20311;-73
2021/01/07 11:39:57;;;;;;;10.97;6.87;;;;;;;;;;5058732;28;20266;-73
2021/01/07 11:42:34;;;;;;;12.57;6.83;;;;;;;;;;5061374;28;20291;-73
2021/01/07 11:45:04;;;;;;;11.30;7.20;;;;;;;;;;5073823;28;20191;-73
2021/01/07 11:47:44;;;;;;;10.63;7.13;;;;;;;;;;5083734;28;20192;-74
2021/01/07 11:50:12;;;;;;;10.53;6.50;;;;;;;;;;5078529;28;20536;-72
2021/01/07 11:52:38;;;;;;;11.03;6.97;;;;;;;;;;5067686;28;20214;-73
2021/01/07 11:55:05;;;;;;;9.63;6.03;;;;;;;;;;5079890;28;20188;-72
2021/01/07 11:57:33;;;;;;;13.20;7.00;;;;;;;;;;5056720;28;20742;-72
2021/01/07 12:00:00;;;;;;;9.37;6.67;;;;;;;;;;5077689;28;20627;-74
2021/01/07 12:02:26;;;;;;;10.03;6.87;;;;;;;;;;5065751;28;20180;-72
2021/01/07 12:04:52;;;;;;;10.40;6.87;;;;;;;;;;5079012;28;20522;-72
2021/01/07 12:07:45;;;;;;;10.03;6.43;;;;;;;;;;5085677;28;20206;-72
2021/01/07 12:10:15;;;;;;;9.97;6.17;;;;;;;;;;5074379;28;20190;-72
2021/01/07 12:12:48;;;;;;;10.43;5.80;;;;;;;;;;5079646;28;20183;-72
2021/01/07 12:15:17;;;;;;;9.73;5.90;;;;;;;;;;5074378;28;20180;-72
2021/01/07 12:17:43;;;;;;;9.33;5.13;;;;;;;;;;5074544;28;20698;-72
2021/01/07 12:20:09;;;;;;;7.57;5.43;;;;;;;;;;5050597;28;20284;-72
2021/01/07 12:22:36;;;;;;;8.87;5.33;;;;;;;;;;5079833;28;20266;-72
2021/01/07 12:25:03;;;;;;;6.43;4.70;;;;;;;;;;5084799;28;20659;-72
2021/01/07 12:27:29;;;;;;;5.80;3.63;;;;;;;;;;5063397;28;20227;-72
2021/01/07 12:29:54;;;;;;;6.23;3.83;;;;;;;;;;5077854;28;20722;-72
2021/01/07 12:32:30;;;;;;;7.13;4.40;;;;;;;;;;5073773;28;20653;-73
2021/01/07 12:35:14;;;;;;;6.23;4.40;;;;;;;;;;5078062;28;20191;-73
2021/01/07 12:38:00;;;;;;;4.97;3.40;;;;;;;;;;5073862;28;20223;-73
2021/01/07 12:40:30;;;;;;;5.17;3.40;;;;;;;;;;5074846;28;20199;-73
2021/01/07 12:43:01;;;;;;;4.50;3.20;;;;;;;;;;5069572;28;20196;-72
2021/01/07 12:45:29;;;;;;;3.73;2.90;;;;;;;;;;5082598;28;20188;-74
2021/01/07 12:47:55;;;;;;;6.17;2.40;;;;;;;;;;5049261;28;20228;-73
2021/01/07 12:50:22;;;;;;;3.00;2.30;;;;;;;;;;5083176;28;20238;-73
2021/01/07 12:52:49;;;;;;;4.10;2.20;;;;;;;;;;5071961;28;20206;-73
2021/01/07 12:55:14;;;;;;;2.90;2.13;;;;;;;;;;5083021;28;20207;-73
2021/01/07 12:57:47;;;;;;;3.47;2.17;;;;;;;;;;5077973;28;20184;-72
2021/01/07 13:00:19;;;;;;;3.00;2.00;;;;;;;;;;5068392;28;20188;-72
2021/01/07 13:02:59;;;;;;;3.90;2.20;;;;;;;;;;5058648;28;20610;-72
2021/01/07 13:05:35;;;;;;;6.50;2.70;;;;;;;;;;4377196;28;10000853;-72
2021/01/07 13:08:03;;;;;;;4.53;2.57;;;;;;;;;;5069390;28;20202;-73
2021/01/07 13:10:30;;;;;;;3.73;2.60;;;;;;;;;;5077823;28;20227;-72
2021/01/07 13:12:58;;;;;;;3.60;2.80;;;;;;;;;;5075249;28;20190;-72
2021/01/07 13:15:24;;;;;;;3.03;2.20;;;;;;;;;;5066946;28;20201;-74
2021/01/07 13:17:49;;;;;;;5.57;2.70;;;;;;;;;;5080666;28;20655;-74
2021/01/07 13:20:15;;;;;;;3.70;2.20;;;;;;;;;;5069919;28;20200;-73
2021/01/07 13:22:44;;;;;;;2.97;2.10;;;;;;;;;;5063998;28;20180;-73
2021/01/07 13:25:13;;;;;;;2.87;1.60;;;;;;;;;;5071932;28;20227;-73
2021/01/07 13:27:39;;;;;;;3.77;1.93;;;;;;;;;;5081678;28;20573;-73
2021/01/07 13:30:05;;;;;;;3.13;2.10;;;;;;;;;;5071732;28;20562;-73
2021/01/07 13:32:30;;;;;;;3.03;2.23;;;;;;;;;;5064034;28;20245;-73
2021/01/07 13:34:56;;;;;;;4.30;2.43;;;;;;;;;;5072707;28;20191;-73
2021/01/07 13:37:22;;;;;;;3.40;2.30;;;;;;;;;;5083334;28;20242;-73
2021/01/07 13:39:48;;;;;;;3.33;2.40;;;;;;;;;;5071311;28;20198;-73
2021/01/07 13:42:15;;;;;;;2.10;1.70;;;;;;;;;;5083887;28;20188;-72
2021/01/07 13:44:46;;;;;;;5.20;2.17;;;;;;;;;;5073385;28;20616;-72
2021/01/07 13:47:14;;;;;;;4.03;2.40;;;;;;;;;;5085734;28;20646;-72
2021/01/07 13:49:43;;;;;;;4.53;2.03;;;;;;;;;;5059300;28;20547;-72
2021/01/07 13:52:09;;;;;;;3.33;2.00;;;;;;;;;;5085495;28;20183;-72
2021/01/07 13:54:39;;;;;;;3.87;2.20;;;;;;;;;;5084427;28;20196;-73
2021/01/07 13:57:06;;;;;;;3.93;2.47;;;;;;;;;;5077349;28;20277;-72
2021/01/07 13:59:34;;;;;;;4.00;2.40;;;;;;;;;;5084825;28;20188;-72
2021/01/07 14:02:04;;;;;;;3.77;2.20;;;;;;;;;;5077807;28;20191;-72
2021/01/07 14:04:38;;;;;;;3.93;2.50;;;;;;;;;;5084876;28;20187;-72
2021/01/07 14:07:08;;;;;;;6.07;2.70;;;;;;;;;;5058399;28;20286;-72
2021/01/07 14:09:34;;;;;;;3.47;2.37;;;;;;;;;;5084113;28;20187;-72
2021/01/07 14:12:01;;;;;;;4.00;2.50;;;;;;;;;;5053363;28;20188;-72
2021/01/07 14:14:27;;;;;;;4.03;2.87;;;;;;;;;;5081563;28;20197;-72
2021/01/07 14:16:53;;;;;;;2.37;1.93;;;;;;;;;;5071962;28;20685;-72
2021/01/07 14:19:18;;;;;;;4.13;2.30;;;;;;;;;;5084417;28;20560;-72
2021/01/07 14:21:44;;;;;;;4.53;2.80;;;;;;;;;;5070923;28;20227;-71
2021/01/07 14:24:11;;;;;;;4.73;2.30;;;;;;;;;;5084400;28;20326;-72
2021/01/07 14:27:23;;;;;;;3.07;2.00;;;;;;;;;;5075217;28;20563;-72
2021/01/07 14:29:51;;;;;;;3.20;2.00;;;;;;;;;;5082587;28;20206;-72
2021/01/07 14:32:18;;;;;;;3.90;1.73;;;;;;;;;;5079817;28;20199;-72
2021/01/07 14:34:46;;;;;;;3.53;1.90;;;;;;;;;;5082536;28;20212;-72
2021/01/07 14:37:14;;;;;;;1.50;1.40;;;;;;;;;;5062871;28;20704;-72
2021/01/07 14:39:39;;;;;;;2.73;1.50;;;;;;;;;;5067986;28;20249;-73
2021/01/07 14:42:04;;;;;;;1.90;1.57;;;;;;;;;;5058776;28;20192;-73